Flight Track Log - Related Links

Times and Time Zones

All times are in EDT time to prevent confusion due to time zone crossing. See the GJS6221 flight status page for this flight to view local times or setup timezone preferences in your user account.

Time Position Orientation Groundspeed Altitude Reporting Facility
EDT Latitude Longitude Course Direction KTS MPH feet Rate Location/Type
Fri 01:06:02 PM 40.7500 -73.8500 51° Northeast 156 180 1,900  Level New York TRACON
Fri 01:07:02 PM 40.7333 -73.8000 114° Southeast 218 251 4,400 2,900 Climbing New York TRACON
Fri 01:08:02 PM 40.7833 -73.7667 27° Northeast 220 253 7,700 2,750 Climbing New York TRACON
Fri 01:09:02 PM 40.8667 -73.7500 North 272 313 9,900 2,100 Climbing New York TRACON
Fri 01:10:02 PM 40.9333 -73.7000 30° Northeast 306 352 11,900 2,097 Climbing New York TRACON
Fri 01:11:00 PM 41.5278 -73.2371 51° Northeast  Level FlightAware Approximate
Fri 01:12:08 PM 41.1128 -73.5833 26° Northeast 353 406 16,400  Level Boston Center
Fri 01:13:08 PM 41.2031 -73.5161 29° Northeast 361 415 18,100 1,600 Climbing Boston Center
Fri 01:14:08 PM 41.2914 -73.4539 28° Northeast 381 438 19,600 1,900 Climbing Boston Center
Fri 01:15:08 PM 41.3814 -73.3861 29° Northeast 381 438 21,900 1,750 Climbing Boston Center
Fri 01:16:08 PM 41.4758 -73.3156 29° Northeast 375 432 23,100 1,250 Climbing Boston Center
Fri 01:17:08 PM 41.5619 -73.2086 43° Northeast 375 432 24,400 1,300 Climbing Boston Center
Fri 01:18:08 PM 41.6503 -73.1153 38° Northeast 380 437 25,700 1,250 Climbing Boston Center
Fri 01:19:08 PM 41.7647 -73.1303 354° North 367 422 26,900 650 Climbing Boston Center
Fri 01:20:08 PM 41.8564 -73.1453 353° North 385 443 27,000 50 Climbing Boston Center
Fri 01:21:08 PM 41.9894 -73.1719 352° North 385 443 27,000  Level Boston Center
Fri 01:22:08 PM 42.1042 -73.1900 353° North 399 459 27,000  Level Boston Center
Fri 01:23:08 PM 42.2186 -73.2111 352° North 411 473 27,000  Level Boston Center
Fri 01:24:08 PM 42.3331 -73.2322 352° North 411 473 27,000  Level Boston Center
Fri 01:25:08 PM 42.4392 -73.2361 358° North 416 479 27,000  Level Boston Center
Fri 01:26:08 PM 42.5539 -73.2547 353° North 416 479 27,000  Level Boston Center
Fri 01:27:08 PM 42.6786 -73.2931 347° North 421 484 27,000  Level Boston Center
Fri 01:28:08 PM 42.7806 -73.3086 354° North 416 479 27,000  Level Boston Center
Fri 01:29:08 PM 42.8950 -73.3300 352° North 416 479 27,000 -100 Level Boston Center
Fri 01:30:08 PM 43.0117 -73.3458 354° North 416 479 26,800 -1,300 Descending Boston Center
Fri 01:31:08 PM 43.1264 -73.3333 North 406 467 24,400 -1,400 Descending Boston Center
Fri 01:32:08 PM 43.2119 -73.3203 North 400 460 24,000 -200 Descending Boston Center
Fri 01:33:08 PM 43.3453 -73.3022 North 400 460 24,000 -50 Level Boston Center
Fri 01:34:08 PM 43.4644 -73.2839 North 394 453 23,900 -1,300 Descending Boston Center
Fri 01:35:08 PM 43.5686 -73.2711 North 389 448 21,400 -2,409 Descending Boston Center
Fri 01:36:20 PM 43.6750 -73.2583 North 384 442 18,600 -2,500 Descending Boston Center
Fri 01:37:20 PM 43.7917 -73.2425 North 363 418 15,900 -2,650 Descending Boston Center
Fri 01:38:20 PM 43.8836 -73.2322 North 363 418 13,300 -2,350 Descending Boston Center
Fri 01:39:20 PM 43.9733 -73.2189 North 340 391 11,200 -1,950 Descending Boston Center
Fri 01:40:20 PM 44.0483 -73.2114 North 307 353 9,400 -2,000 Descending Boston Center
Fri 01:41:20 PM 44.1317 -73.2008 North 278 320 7,200 -1,800 Descending Boston Center
Fri 01:42:20 PM 44.2047 -73.1756 14° North 273 314 5,800 -1,400 Descending Boston Center
Fri 01:43:20 PM 44.2675 -73.1417 21° North 248 285 4,400 -900 Descending Boston Center
Fri 01:44:20 PM 44.3261 -73.1103 21° North 234 269 4,000 -500 Descending Boston Center
Fri 01:45:20 PM 44.3700 -73.0878 20° North 214 246 3,400 -800 Descending Boston Center
Fri 01:46:20 PM 44.4219 -73.0767 North 176 203 2,400 -1,200 Descending Boston Center
Fri 01:47:20 PM 44.4469 -73.1147 313° West 122 140 1,000 4,300 Descending Boston Center
Fri 01:48:20 PM 44.4694 -73.1528 North 122 140 11,000 5,000 Climbing Boston Center
Fri 01:49:00 PM 44.4667 -73.1500 North  Level FlightAware Approximate
Fri 01:49:20 PM 44.4736 -73.1617 303° West 92 106 11,000  Level Boston Center
Fri 01:50:20 PM 44.4717 -73.1586 132° Southeast 32 37 11,000  Level Boston Center
Fri 01:51:20 PM 44.4736 -73.1675 287° West 16 18 11,000  Level Boston Center
Fri 01:52:20 PM 44.4736 -73.1731 270° West 16 18 11,000  Level Boston Center

Login

Don't have an account? Register now (free) for customized features, flight alerts, and more!